createdAt,value
2019-03-29T00:00:30.421Z,8.37
2019-03-29T00:02:59.307Z,8.37
2019-03-29T00:05:28.280Z,9.20
2019-03-29T00:07:57.262Z,8.20
2019-03-29T00:10:26.152Z,8.93
2019-03-29T00:12:55.088Z,9.37
2019-03-29T00:15:23.983Z,9.87
2019-03-29T00:17:52.888Z,10.20
2019-03-29T00:20:21.795Z,8.77
2019-03-29T00:22:50.689Z,8.93
2019-03-29T00:25:19.628Z,10.27
2019-03-29T00:27:49.585Z,9.30
2019-03-29T00:30:18.490Z,9.30
2019-03-29T00:32:47.412Z,9.20
2019-03-29T00:35:16.382Z,9.13
2019-03-29T00:37:53.322Z,9.87
2019-03-29T00:40:16.960Z,10.00
2019-03-29T00:42:45.844Z,9.83
2019-03-29T00:45:14.825Z,9.53
2019-03-29T00:47:44.688Z,8.97
2019-03-29T00:50:13.653Z,10.60
2019-03-29T00:52:43.012Z,9.20
2019-03-29T00:55:12.064Z,9.93
2019-03-29T00:57:40.960Z,9.67
2019-03-29T01:00:09.963Z,9.43
2019-03-29T01:02:38.850Z,9.77
2019-03-29T01:05:07.816Z,9.00
2019-03-29T01:07:36.800Z,9.97
2019-03-29T01:10:06.171Z,8.90
2019-03-29T01:12:35.067Z,9.30
2019-03-29T01:15:06.061Z,8.93
2019-03-29T01:17:34.963Z,8.93
2019-03-29T01:20:05.527Z,9.47
2019-03-29T01:22:35.597Z,8.90
2019-03-29T01:25:07.993Z,8.57
2019-03-29T01:27:37.308Z,9.10
2019-03-29T01:30:06.670Z,9.33
2019-03-29T01:32:35.586Z,9.03
2019-03-29T01:35:05.648Z,9.00
2019-03-29T01:37:34.539Z,9.17
2019-03-29T01:40:04.128Z,9.73
2019-03-29T01:42:33.015Z,9.87
2019-03-29T01:45:01.910Z,9.23
2019-03-29T01:47:30.821Z,8.57
2019-03-29T01:49:59.730Z,8.90
2019-03-29T01:52:31.499Z,9.63
2019-03-29T01:54:59.438Z,9.00
2019-03-29T01:57:28.316Z,9.17
2019-03-29T01:59:57.226Z,9.40
2019-03-29T02:02:26.220Z,9.70
2019-03-29T02:04:55.112Z,9.70
2019-03-29T02:07:24.004Z,9.30
2019-03-29T02:09:52.943Z,9.60
2019-03-29T02:12:21.828Z,9.57
2019-03-29T02:14:50.974Z,10.50
2019-03-29T02:17:19.887Z,9.97
2019-03-29T02:19:48.782Z,10.47
2019-03-29T02:22:17.677Z,9.27
2019-03-29T02:24:46.594Z,9.43
2019-03-29T02:27:15.499Z,10.23
2019-03-29T02:29:44.463Z,10.23
2019-03-29T02:32:13.392Z,11.10
2019-03-29T02:34:43.595Z,10.33
2019-03-29T02:37:12.980Z,10.73
2019-03-29T02:39:41.986Z,10.10
2019-03-29T02:42:11.958Z,11.23
2019-03-29T02:44:40.858Z,11.17
2019-03-29T02:47:09.776Z,9.83
2019-03-29T02:49:40.337Z,11.67
2019-03-29T02:52:09.364Z,11.97
2019-03-29T02:54:38.483Z,10.50
2019-03-29T02:57:07.379Z,10.63
2019-03-29T02:59:36.280Z,10.43
2019-03-29T03:02:05.191Z,11.27
2019-03-29T03:04:34.192Z,10.10
2019-03-29T03:07:03.088Z,11.13
2019-03-29T03:09:31.980Z,11.53
2019-03-29T03:12:01.268Z,10.20
2019-03-29T03:14:30.161Z,11.00
2019-03-29T03:16:59.063Z,11.40
2019-03-29T03:19:29.058Z,10.77
2019-03-29T03:21:59.053Z,11.33
2019-03-29T03:24:28.025Z,12.17
2019-03-29T03:26:56.965Z,12.40
2019-03-29T03:29:25.900Z,11.40
2019-03-29T03:31:54.835Z,11.83
2019-03-29T03:34:23.819Z,11.40
2019-03-29T03:36:54.286Z,13.03
2019-03-29T03:39:31.534Z,12.80
2019-03-29T03:41:53.825Z,13.30
2019-03-29T03:44:23.784Z,12.83
2019-03-29T03:46:52.681Z,12.70
2019-03-29T03:49:21.600Z,12.57
2019-03-29T03:51:50.564Z,12.63
2019-03-29T03:54:19.536Z,12.90
2019-03-29T03:56:48.927Z,13.30
2019-03-29T03:59:17.893Z,13.20
2019-03-29T04:01:46.822Z,12.73
2019-03-29T04:04:15.756Z,12.50
2019-03-29T04:06:44.654Z,12.70
2019-03-29T04:09:13.552Z,13.63
2019-03-29T04:11:42.472Z,12.70
2019-03-29T04:14:11.455Z,13.47
2019-03-29T04:16:40.424Z,12.77
2019-03-29T04:19:09.344Z,12.23
2019-03-29T04:21:38.243Z,12.70
2019-03-29T04:24:07.181Z,13.23
2019-03-29T04:26:36.166Z,13.50
2019-03-29T04:29:05.433Z,13.27
2019-03-29T04:31:34.573Z,13.57
2019-03-29T04:34:03.463Z,13.90
2019-03-29T04:36:32.371Z,13.10
2019-03-29T04:39:01.293Z,13.83
2019-03-29T04:41:31.762Z,13.50
2019-03-29T04:44:00.655Z,13.67
2019-03-29T04:46:29.610Z,13.40
2019-03-29T04:48:58.517Z,12.53
2019-03-29T04:51:27.418Z,14.20
2019-03-29T04:53:56.360Z,14.17
2019-03-29T04:56:26.341Z,13.70
2019-03-29T04:58:55.233Z,13.50
2019-03-29T05:01:24.249Z,15.60
2019-03-29T05:03:54.290Z,15.03
2019-03-29T05:06:24.298Z,14.80
2019-03-29T05:08:53.200Z,14.17
2019-03-29T05:11:22.092Z,13.60
2019-03-29T05:13:51.044Z,15.23
2019-03-29T05:16:19.940Z,14.37
2019-03-29T05:18:48.841Z,15.77
2019-03-29T05:21:17.753Z,14.63
2019-03-29T05:23:46.640Z,13.13
2019-03-29T05:26:15.542Z,14.80
2019-03-29T05:28:44.496Z,15.60
2019-03-29T05:31:13.395Z,13.87
2019-03-29T05:33:42.304Z,15.23
2019-03-29T05:36:11.225Z,15.10
2019-03-29T05:38:40.118Z,14.13
2019-03-29T05:41:09.102Z,13.67
2019-03-29T05:43:38.034Z,14.17
2019-03-29T05:46:06.934Z,13.77
2019-03-29T05:48:35.831Z,15.47
2019-03-29T05:51:04.831Z,15.53
2019-03-29T05:53:33.722Z,14.57
2019-03-29T05:56:02.628Z,15.27
2019-03-29T05:58:31.555Z,15.93
2019-03-29T06:01:00.619Z,15.23
2019-03-29T06:03:29.521Z,16.40
2019-03-29T06:05:59.440Z,15.53
2019-03-29T06:08:28.347Z,16.03
2019-03-29T06:10:57.244Z,16.93
2019-03-29T06:13:26.189Z,15.70
2019-03-29T06:15:55.104Z,15.90
2019-03-29T06:18:25.603Z,16.17
2019-03-29T06:20:54.581Z,16.07
2019-03-29T06:23:23.489Z,15.57
2019-03-29T06:26:05.107Z,14.57
2019-03-29T06:28:34.003Z,15.37
2019-03-29T06:31:02.902Z,14.90
2019-03-29T06:33:31.869Z,15.70
2019-03-29T06:36:01.141Z,16.83
2019-03-29T06:38:31.617Z,17.00
2019-03-29T06:41:03.309Z,16.13
2019-03-29T06:43:31.213Z,17.80
2019-03-29T06:46:00.107Z,17.60
2019-03-29T06:48:29.045Z,18.07
2019-03-29T06:50:57.949Z,17.87
2019-03-29T06:53:26.844Z,16.00
2019-03-29T06:55:59.129Z,16.67
2019-03-29T06:58:26.511Z,17.27
2019-03-29T07:00:55.410Z,17.40
2019-03-29T07:03:24.362Z,11.87
2019-03-29T07:05:53.256Z,17.93
2019-03-29T07:08:22.225Z,18.03
2019-03-29T07:10:51.133Z,17.40
2019-03-29T07:13:20.115Z,16.90
2019-03-29T07:15:49.039Z,17.33
2019-03-29T07:18:17.945Z,18.10
2019-03-29T07:20:46.830Z,17.87
2019-03-29T07:23:15.792Z,18.33
2019-03-29T07:25:44.689Z,17.57
2019-03-29T07:28:14.654Z,18.37
2019-03-29T07:30:43.586Z,18.17
2019-03-29T07:33:12.484Z,19.00
2019-03-29T07:35:42.352Z,18.90
2019-03-29T07:38:11.299Z,17.03
2019-03-29T07:40:40.230Z,17.50
2019-03-29T07:43:09.164Z,17.80
2019-03-29T07:45:38.178Z,18.33
2019-03-29T07:48:07.078Z,18.57
2019-03-29T07:50:35.970Z,18.30
2019-03-29T07:53:04.890Z,19.23
2019-03-29T07:55:36.996Z,16.17
2019-03-29T07:58:04.382Z,18.30
2019-03-29T08:00:33.316Z,20.30
2019-03-29T08:03:02.279Z,17.60
2019-03-29T08:05:31.183Z,17.90
2019-03-29T08:08:00.300Z,16.40
2019-03-29T08:10:31.438Z,17.20
2019-03-29T08:12:59.859Z,17.60
2019-03-29T08:15:28.769Z,16.20
2019-03-29T08:18:01.139Z,16.40
2019-03-29T08:20:44.658Z,19.33
2019-03-29T08:22:58.972Z,16.77
2019-03-29T08:25:28.937Z,14.87
2019-03-29T08:27:57.831Z,15.60
2019-03-29T08:30:26.774Z,15.67
2019-03-29T08:32:55.664Z,15.93
2019-03-29T08:35:24.572Z,14.43
2019-03-29T08:37:53.692Z,14.27
2019-03-29T08:40:22.588Z,14.63
2019-03-29T08:42:51.557Z,15.40
2019-03-29T08:45:20.560Z,13.77
2019-03-29T08:47:49.532Z,13.83
2019-03-29T08:50:18.439Z,14.77
2019-03-29T08:52:47.444Z,14.50
2019-03-29T08:55:18.096Z,12.93
2019-03-29T08:57:46.987Z,12.97
2019-03-29T09:00:17.505Z,13.53
2019-03-29T09:02:46.893Z,14.23
2019-03-29T09:05:15.781Z,13.90
2019-03-29T09:07:45.410Z,12.97
2019-03-29T09:10:16.201Z,11.97
2019-03-29T09:12:45.100Z,12.03
2019-03-29T09:15:14.079Z,12.13
2019-03-29T09:17:43.016Z,12.57
2019-03-29T09:20:12.002Z,13.20
2019-03-29T09:22:40.889Z,11.83
2019-03-29T09:25:09.897Z,12.93
2019-03-29T09:27:38.882Z,12.43
2019-03-29T09:30:07.948Z,12.23
2019-03-29T09:32:36.944Z,11.97
2019-03-29T09:35:06.006Z,11.33
2019-03-29T09:37:34.901Z,11.73
2019-03-29T09:40:04.466Z,12.03
2019-03-29T09:42:33.409Z,13.00
2019-03-29T09:45:02.306Z,11.57
2019-03-29T09:47:36.992Z,12.17
2019-03-29T09:50:01.986Z,13.53
2019-03-29T09:52:31.426Z,12.47
2019-03-29T09:55:00.429Z,13.23
2019-03-29T09:57:37.435Z,11.77
2019-03-29T09:59:59.945Z,13.37
2019-03-29T10:02:28.849Z,12.73
2019-03-29T10:04:58.861Z,11.77
2019-03-29T10:07:27.750Z,12.20
2019-03-29T10:09:56.651Z,11.40
2019-03-29T10:12:25.571Z,12.20
2019-03-29T10:14:54.461Z,12.57
2019-03-29T10:17:23.433Z,13.30
2019-03-29T10:19:52.376Z,13.43
2019-03-29T10:22:21.274Z,11.40
2019-03-29T10:24:50.173Z,12.60
2019-03-29T10:27:19.336Z,11.80
2019-03-29T10:29:48.392Z,11.47
2019-03-29T10:32:17.289Z,11.57
2019-03-29T10:34:46.206Z,11.97
2019-03-29T10:37:15.113Z,11.50
2019-03-29T10:39:44.019Z,11.67
2019-03-29T10:42:12.963Z,11.53
2019-03-29T10:44:41.857Z,11.87
2019-03-29T10:47:10.760Z,12.60
2019-03-29T10:49:39.746Z,11.60
2019-03-29T10:52:08.647Z,10.90
2019-03-29T10:54:37.554Z,9.93
2019-03-29T10:57:06.466Z,9.47
2019-03-29T10:59:35.364Z,11.03
2019-03-29T11:02:04.274Z,11.33
2019-03-29T11:04:33.189Z,10.50
2019-03-29T11:07:02.152Z,10.73
2019-03-29T11:09:31.127Z,11.10
2019-03-29T11:12:00.053Z,10.27
2019-03-29T11:14:30.021Z,10.40
2019-03-29T11:16:58.917Z,10.77
2019-03-29T11:19:27.872Z,11.40
2019-03-29T11:21:56.772Z,11.10
2019-03-29T11:24:25.676Z,11.20
2019-03-29T11:26:54.658Z,10.53
2019-03-29T11:29:23.584Z,10.63
2019-03-29T11:31:52.487Z,11.17
2019-03-29T11:34:21.434Z,10.77
2019-03-29T11:36:52.591Z,9.13
2019-03-29T11:39:20.924Z,10.90
2019-03-29T11:41:49.836Z,11.70
2019-03-29T11:44:18.728Z,10.37
2019-03-29T11:46:47.632Z,11.50
2019-03-29T11:49:16.609Z,10.77
2019-03-29T11:51:45.502Z,11.83
2019-03-29T11:54:14.447Z,11.10
2019-03-29T11:56:43.339Z,10.20
2019-03-29T11:59:12.244Z,11.33
2019-03-29T12:01:42.774Z,10.47
2019-03-29T12:04:12.907Z,11.10
2019-03-29T12:06:41.867Z,11.03
2019-03-29T12:09:10.949Z,11.17
2019-03-29T12:11:39.910Z,10.97
2019-03-29T12:14:08.805Z,10.40
2019-03-29T12:16:37.745Z,10.20
2019-03-29T12:19:06.791Z,11.30
2019-03-29T12:21:35.831Z,10.47
2019-03-29T12:24:04.799Z,10.00
2019-03-29T12:26:33.757Z,10.97
2019-03-29T12:29:02.735Z,10.27
2019-03-29T12:31:31.645Z,11.23
2019-03-29T12:34:00.725Z,11.30
2019-03-29T12:36:29.627Z,10.80
2019-03-29T12:38:58.576Z,10.33
2019-03-29T12:41:27.496Z,11.00
2019-03-29T12:43:56.399Z,10.03
2019-03-29T12:46:25.292Z,10.73
2019-03-29T12:48:54.250Z,10.43
2019-03-29T12:51:23.152Z,11.80
2019-03-29T12:53:52.118Z,9.60
2019-03-29T12:56:21.108Z,10.37
2019-03-29T12:58:50.009Z,10.83
2019-03-29T13:01:18.909Z,10.77
2019-03-29T13:03:47.829Z,10.57
2019-03-29T13:06:16.776Z,10.70
2019-03-29T13:08:45.681Z,10.37
2019-03-29T13:11:14.597Z,10.70
2019-03-29T13:13:43.608Z,10.20
2019-03-29T13:16:12.504Z,9.70
2019-03-29T13:18:41.397Z,9.70
2019-03-29T13:21:10.446Z,9.67
2019-03-29T13:23:39.408Z,10.67
2019-03-29T13:26:08.307Z,10.13
2019-03-29T13:28:37.225Z,10.13
2019-03-29T13:31:06.114Z,9.47
2019-03-29T13:33:35.008Z,9.97
2019-03-29T13:36:04.010Z,9.97
2019-03-29T13:38:32.966Z,10.27
2019-03-29T13:41:01.859Z,9.27
2019-03-29T13:43:30.841Z,8.73
2019-03-29T13:45:59.795Z,9.47
2019-03-29T13:48:28.718Z,8.63
2019-03-29T13:50:59.431Z,8.17
2019-03-29T13:53:28.201Z,8.80
2019-03-29T13:55:57.130Z,8.50
2019-03-29T13:58:26.039Z,7.87
2019-03-29T14:00:54.935Z,8.23
2019-03-29T14:03:23.856Z,8.47
2019-03-29T14:05:52.908Z,8.10
2019-03-29T14:08:21.804Z,9.17
2019-03-29T14:10:50.734Z,8.87
2019-03-29T14:13:19.914Z,9.03
2019-03-29T14:15:48.913Z,8.37
2019-03-29T14:18:17.843Z,8.83
2019-03-29T14:20:46.751Z,8.97
2019-03-29T14:23:15.715Z,8.53
2019-03-29T14:25:44.650Z,8.07
2019-03-29T14:28:13.544Z,7.47
2019-03-29T14:30:42.438Z,9.00
2019-03-29T14:33:11.394Z,8.37
2019-03-29T14:35:40.297Z,7.90
2019-03-29T14:38:09.189Z,8.63
2019-03-29T14:40:38.123Z,8.83
2019-03-29T14:43:07.009Z,7.20
2019-03-29T14:45:35.912Z,7.47
2019-03-29T14:48:05.825Z,7.67
2019-03-29T14:50:34.792Z,8.87
2019-03-29T14:53:03.847Z,7.47
2019-03-29T14:55:32.857Z,7.40
2019-03-29T14:58:01.750Z,7.53
2019-03-29T15:00:35.787Z,7.23
2019-03-29T15:03:05.036Z,6.93
2019-03-29T15:05:33.928Z,7.47
2019-03-29T15:08:03.027Z,6.80
2019-03-29T15:10:32.130Z,7.73
2019-03-29T15:13:01.026Z,7.80
2019-03-29T15:15:30.084Z,7.37
2019-03-29T15:17:59.045Z,6.67
2019-03-29T15:20:27.933Z,7.30
2019-03-29T15:22:56.844Z,7.23
2019-03-29T15:25:25.739Z,7.00
2019-03-29T15:27:54.629Z,7.67
2019-03-29T15:30:23.609Z,6.80
2019-03-29T15:32:52.501Z,7.07
2019-03-29T15:35:22.471Z,6.93
2019-03-29T15:37:51.597Z,7.13
2019-03-29T15:40:20.507Z,6.33
2019-03-29T15:42:50.474Z,6.87
2019-03-29T15:45:21.027Z,6.63
2019-03-29T15:47:50.155Z,7.03
2019-03-29T15:50:19.083Z,7.07
2019-03-29T15:52:48.058Z,7.80
2019-03-29T15:55:17.033Z,8.03
2019-03-29T15:57:45.959Z,7.80
2019-03-29T16:00:15.025Z,6.93
2019-03-29T16:02:44.001Z,6.97
2019-03-29T16:05:12.901Z,6.50
2019-03-29T16:07:41.839Z,6.53
2019-03-29T16:10:10.796Z,6.83
2019-03-29T16:12:39.704Z,7.27
2019-03-29T16:15:08.621Z,6.97
2019-03-29T16:17:37.585Z,7.93
2019-03-29T16:20:06.552Z,8.20
2019-03-29T16:22:35.547Z,7.00
2019-03-29T16:25:07.650Z,7.40
2019-03-29T16:27:36.664Z,7.47
2019-03-29T16:30:06.229Z,7.20
2019-03-29T16:32:35.509Z,7.20
2019-03-29T16:35:06.592Z,6.87
2019-03-29T16:37:35.563Z,7.70
2019-03-29T16:40:07.244Z,6.30
2019-03-29T16:42:36.591Z,6.60
2019-03-29T16:45:06.754Z,7.40
2019-03-29T16:47:35.752Z,7.40
2019-03-29T16:50:05.718Z,7.23
2019-03-29T16:52:34.608Z,7.00
2019-03-29T16:55:13.086Z,7.27
2019-03-29T16:57:34.829Z,6.87
2019-03-29T17:00:05.278Z,8.13
2019-03-29T17:02:35.543Z,7.17
2019-03-29T17:05:05.520Z,7.33
2019-03-29T17:07:34.520Z,7.50
2019-03-29T17:10:04.646Z,5.83
2019-03-29T17:12:33.683Z,6.43
2019-03-29T17:15:02.656Z,6.73
2019-03-29T17:17:31.638Z,6.60
2019-03-29T17:20:00.520Z,6.90
2019-03-29T17:22:29.505Z,6.50
2019-03-29T17:24:58.398Z,6.80
2019-03-29T17:27:27.290Z,6.73
2019-03-29T17:29:56.225Z,7.77
2019-03-29T17:32:25.357Z,6.90
2019-03-29T17:34:54.322Z,6.40
2019-03-29T17:37:23.243Z,5.77
2019-03-29T17:39:52.136Z,5.87
2019-03-29T17:42:21.025Z,6.37
2019-03-29T17:44:50.019Z,5.77
2019-03-29T17:47:18.951Z,6.60
2019-03-29T17:49:47.881Z,6.17
2019-03-29T17:52:16.789Z,5.63
2019-03-29T17:54:45.675Z,5.33
2019-03-29T17:57:14.574Z,6.03
2019-03-29T17:59:43.489Z,5.80
2019-03-29T18:02:12.389Z,5.80
2019-03-29T18:04:41.279Z,6.73
2019-03-29T18:07:10.281Z,7.10
2019-03-29T18:09:39.248Z,7.67
2019-03-29T18:12:11.182Z,6.60
2019-03-29T18:14:38.766Z,6.37
2019-03-29T18:17:07.658Z,7.47
2019-03-29T18:19:36.564Z,6.43
2019-03-29T18:22:05.592Z,6.80
2019-03-29T18:24:34.471Z,5.87
2019-03-29T18:27:03.432Z,6.60
2019-03-29T18:29:32.361Z,6.70
2019-03-29T18:32:01.265Z,7.07
2019-03-29T18:34:30.170Z,7.00
2019-03-29T18:36:59.965Z,7.57
2019-03-29T18:39:29.428Z,7.63
2019-03-29T18:41:58.314Z,7.53
2019-03-29T18:44:27.242Z,6.77
2019-03-29T18:46:56.132Z,7.30
2019-03-29T18:49:25.036Z,7.80
2019-03-29T18:51:53.936Z,7.57
2019-03-29T18:54:22.832Z,7.90
2019-03-29T18:56:51.768Z,7.20
2019-03-29T18:59:20.725Z,7.00
2019-03-29T19:01:49.634Z,7.70
2019-03-29T19:04:18.558Z,8.00
2019-03-29T19:06:48.504Z,8.07
2019-03-29T19:09:17.468Z,7.90
2019-03-29T19:11:46.496Z,7.83
2019-03-29T19:14:15.470Z,7.90
2019-03-29T19:16:58.086Z,7.63
2019-03-29T19:19:15.067Z,8.67
2019-03-29T19:21:44.325Z,8.03
2019-03-29T19:24:13.236Z,7.60
2019-03-29T19:26:42.190Z,8.30
2019-03-29T19:29:11.095Z,7.63
2019-03-29T19:31:39.985Z,8.13
2019-03-29T19:34:09.004Z,8.03
2019-03-29T19:36:37.900Z,7.20
2019-03-29T19:39:06.862Z,8.20
2019-03-29T19:41:36.129Z,7.80
2019-03-29T19:51:01.211Z,8.43
2019-03-29T19:53:30.235Z,8.20
2019-03-29T19:55:59.261Z,7.97
2019-03-29T19:58:28.268Z,7.70
2019-03-29T20:00:57.272Z,8.43
2019-03-29T20:03:26.303Z,8.50
2019-03-29T20:05:55.249Z,7.80
2019-03-29T20:08:24.233Z,8.03
2019-03-29T20:10:53.279Z,7.20
2019-03-29T20:13:22.176Z,7.83
2019-03-29T20:15:51.069Z,8.27
2019-03-29T20:18:20.965Z,7.80
2019-03-29T20:20:49.938Z,8.23
2019-03-29T20:23:18.920Z,7.80
2019-03-29T20:25:48.928Z,7.20
2019-03-29T20:28:17.906Z,7.60
2019-03-29T20:30:46.867Z,8.13
2019-03-29T20:33:15.761Z,7.83
2019-03-29T20:35:44.677Z,7.90
2019-03-29T20:38:13.648Z,7.23
2019-03-29T20:40:42.620Z,7.60
2019-03-29T20:43:11.618Z,7.47
2019-03-29T20:45:40.504Z,7.53
2019-03-29T20:48:09.394Z,8.03
2019-03-29T20:50:38.420Z,8.00
2019-03-29T20:53:07.319Z,8.58
2019-03-29T20:55:36.289Z,7.83
2019-03-29T20:58:05.194Z,8.20
2019-03-29T21:00:34.149Z,8.17
2019-03-29T21:03:03.034Z,8.10
2019-03-29T21:05:31.996Z,9.57
2019-03-29T21:08:00.979Z,7.80
2019-03-29T21:10:29.944Z,7.90
2019-03-29T21:12:58.878Z,7.67
2019-03-29T21:15:27.880Z,7.93
2019-03-29T21:17:57.983Z,8.63
2019-03-29T21:20:27.044Z,7.60
2019-03-29T21:22:55.984Z,7.67
2019-03-29T21:25:24.868Z,7.60
2019-03-29T21:27:53.771Z,7.97
2019-03-29T21:30:22.756Z,8.00
2019-03-29T21:32:51.664Z,8.23
2019-03-29T21:35:20.621Z,8.03
2019-03-29T21:37:49.645Z,7.37
2019-03-29T21:40:18.617Z,7.83
2019-03-29T21:42:47.500Z,8.07
2019-03-29T21:45:28.035Z,7.57
2019-03-29T21:48:01.481Z,7.53
2019-03-29T21:50:17.836Z,7.67
2019-03-29T21:52:46.719Z,8.30
2019-03-29T21:55:15.625Z,7.77
2019-03-29T21:57:44.557Z,8.13
2019-03-29T22:00:13.829Z,8.13
2019-03-29T22:02:42.953Z,7.93
2019-03-29T22:05:12.020Z,8.33
2019-03-29T22:07:41.004Z,8.43
2019-03-29T22:10:10.765Z,8.97
2019-03-29T22:12:42.773Z,8.37
2019-03-29T22:15:10.392Z,8.63
2019-03-29T22:17:39.301Z,7.83
2019-03-29T22:20:09.377Z,8.47
2019-03-29T22:22:38.281Z,9.43
2019-03-29T22:25:07.651Z,9.00
2019-03-29T22:27:36.717Z,9.03
2019-03-29T22:30:06.785Z,8.67
2019-03-29T22:32:35.783Z,8.27
2019-03-29T22:35:07.912Z,8.27
2019-03-29T22:37:36.968Z,8.90
2019-03-29T22:40:08.825Z,8.33
2019-03-29T22:42:37.753Z,8.90
2019-03-29T22:45:07.131Z,8.90
2019-03-29T22:47:36.026Z,8.30
2019-03-29T22:50:05.823Z,9.10
2019-03-29T22:52:34.708Z,8.60
2019-03-29T22:55:04.884Z,7.80
2019-03-29T22:57:33.929Z,8.63
2019-03-29T23:00:04.354Z,9.10
2019-03-29T23:02:34.892Z,9.00
2019-03-29T23:05:05.260Z,8.97
2019-03-29T23:07:34.226Z,9.33
2019-03-29T23:10:04.002Z,8.60
2019-03-29T23:12:32.902Z,8.60
2019-03-29T23:15:01.832Z,9.10
2019-03-29T23:17:31.902Z,8.80
2019-03-29T23:20:00.839Z,9.53
2019-03-29T23:22:30.008Z,9.90
2019-03-29T23:24:58.898Z,8.50
2019-03-29T23:27:27.965Z,9.33
2019-03-29T23:29:57.020Z,8.60
2019-03-29T23:32:26.038Z,8.93
2019-03-29T23:34:55.045Z,10.03
2019-03-29T23:37:23.943Z,9.40
2019-03-29T23:39:52.838Z,8.80
2019-03-29T23:42:21.955Z,9.37
2019-03-29T23:44:50.925Z,8.83
2019-03-29T23:47:19.886Z,8.27
2019-03-29T23:49:48.879Z,9.80
2019-03-29T23:52:17.772Z,9.27
2019-03-29T23:54:47.728Z,8.83
2019-03-29T23:57:16.658Z,9.50
2019-03-29T23:59:45.547Z,9.47
